Leland, Mississippi
Current Conditions -  °F | °C
As of 8:53 PM on Thursday 27 Nov 2014 (Local Time) from KGLH Reporting Station
Clear Clear  
Wind Chill: 34°   Ceiling: Unl
Heat Index: 34°   Visibility: 9mi
Dew Point: 31°   Wind: 0mph
Humidity: 89%   Direction: NA
Pressure: 30.48"   Gusts: NA
Location:  33.4°N, 90.9°W
Report Text: KGLH 280253Z AUTO 00000KT 9SM CLR 01/M01 A3048 RMK AO2 SLP330 T00111006 50002
Loading
Personal Weather Stations






























Interactive Weather Map New forecast layout! Learn more

10-Day Weather Forecast

Advertisements
Track Severe Weather on mobile